Time;durP1;ratioP1;P1;durP2;ratioP2;P2;SDS_P1;SDS_P2;PMS_P1;PMS_P2;Temp;Humidity;BMP_temperature;BMP_pressure;BME280_temperature;BME280_humidity;BME280_pressure;Samples;Min_cycle;Max_cycle;Signal;HPM_P1;HPM_P2
2022/04/09 00:02:06;;;;;;;0.93;0.30;;;;;;;3.35;49.06;98407.09;4920712;29;20047;-82
2022/04/09 00:04:31;;;;;;;1.48;0.30;;;;;;;3.19;48.46;98388.97;4912229;29;20028;-82
2022/04/09 00:06:56;;;;;;;1.27;0.40;;;;;;;3.37;48.39;98415.63;4906147;29;20025;-81
2022/04/09 00:09:22;;;;;;;0.50;0.20;;;;;;;3.35;46.44;98400.97;4904798;29;20136;-82
2022/04/09 00:11:47;;;;;;;0.50;0.20;;;;;;;3.41;45.94;98403.59;4903789;29;20419;-82
2022/04/09 00:14:13;;;;;;;0.80;0.35;;;;;;;3.42;45.69;98410.53;4905709;29;20049;-82
2022/04/09 00:16:41;;;;;;;1.58;0.10;;;;;;;3.41;46.50;98402.75;4904484;29;20025;-81
2022/04/09 00:19:07;;;;;;;0.35;0.25;;;;;;;3.23;47.90;98390.97;4905421;29;20048;-81
2022/04/09 00:21:32;;;;;;;0.65;0.15;;;;;;;3.25;48.72;98410.19;4906551;29;20471;-81
2022/04/09 00:23:58;;;;;;;0.30;0.20;;;;;;;3.03;49.24;98411.50;4904412;29;20052;-82
2022/04/09 00:26:23;;;;;;;2.67;0.45;;;;;;;2.97;50.73;98417.63;4889988;29;20112;-82
2022/04/09 00:28:49;;;;;;;0.75;0.20;;;;;;;2.74;51.42;98410.94;4906220;29;20037;-82
2022/04/09 00:31:14;;;;;;;1.25;0.30;;;;;;;2.70;51.55;98419.53;4905233;29;20057;-81
2022/04/09 00:33:40;;;;;;;1.55;0.32;;;;;;;2.58;51.98;98422.00;4905826;29;20055;-81
2022/04/09 00:36:05;;;;;;;0.73;0.20;;;;;;;2.43;52.62;98413.44;4906902;29;20044;-82
2022/04/09 00:38:31;;;;;;;0.80;0.28;;;;;;;2.34;53.20;98404.88;4906566;29;20036;-82
2022/04/09 00:40:57;;;;;;;0.50;0.13;;;;;;;2.23;54.34;98413.44;4906829;29;20132;-82
2022/04/09 00:43:22;;;;;;;0.80;0.25;;;;;;;2.03;55.01;98405.47;4889457;29;20473;-82
2022/04/09 00:45:49;;;;;;;1.55;0.22;;;;;;;2.05;55.53;98419.34;4905601;29;20036;-81
2022/04/09 00:48:16;;;;;;;0.85;0.40;;;;;;;1.94;56.79;98419.94;4906309;29;20032;-82
2022/04/09 00:50:42;;;;;;;0.88;0.20;;;;;;;1.75;57.45;98401.16;4907727;29;20033;-82
2022/04/09 00:53:09;;;;;;;0.68;0.20;;;;;;;1.86;58.80;98418.31;4908461;29;20051;-81
2022/04/09 00:58:21;;;;;;;0.88;0.30;;;;;;;2.67;61.15;98393.41;4900752;29;20091;-81
2022/04/09 01:00:46;;;;;;;2.92;0.40;;;;;;;3.26;61.72;98422.44;4900536;29;20103;-81
2022/04/09 01:03:16;;;;;;;2.67;0.50;;;;;;;3.42;61.82;98410.53;4897720;29;20095;-80
2022/04/09 01:05:43;;;;;;;1.02;0.45;;;;;;;3.68;64.46;98412.22;4900188;29;20475;-82
2022/04/09 01:08:09;;;;;;;0.77;0.20;;;;;;;3.84;58.75;98421.56;4900202;29;20032;-80
2022/04/09 01:10:35;;;;;;;1.88;0.30;;;;;;;3.88;58.40;98414.78;4899898;29;20187;-80
2022/04/09 01:13:01;;;;;;;4.60;0.80;;;;;;;3.79;63.99;98385.97;4898464;29;20454;-81
2022/04/09 01:15:26;;;;;;;4.03;0.50;;;;;;;4.05;60.15;98433.69;4903851;29;20040;-80
2022/04/09 01:17:53;;;;;;;1.92;0.60;;;;;;;4.11;64.51;98416.06;4908171;29;20450;-81
2022/04/09 01:20:21;;;;;;;2.38;0.60;;;;;;;4.06;60.07;98402.56;4900245;29;20079;-81
2022/04/09 01:22:47;;;;;;;1.42;0.40;;;;;;;4.14;61.83;98437.72;4896949;29;20458;-81
2022/04/09 01:25:12;;;;;;;1.63;0.40;;;;;;;4.00;60.19;98404.25;4899293;29;20069;-80
2022/04/09 01:27:37;;;;;;;1.88;0.50;;;;;;;4.04;59.45;98409.94;4896986;29;20028;-81
2022/04/09 01:30:04;;;;;;;3.90;0.60;;;;;;;4.15;59.22;98425.25;4884269;29;20039;-81
2022/04/09 01:32:29;;;;;;;1.63;0.43;;;;;;;4.14;61.46;98421.75;4899870;29;20029;-80
2022/04/09 01:34:55;;;;;;;3.13;0.57;;;;;;;4.03;61.83;98422.44;4900708;29;20039;-81
2022/04/09 01:37:20;;;;;;;3.08;0.70;;;;;;;4.14;62.33;98420.91;4897492;29;20055;-81
2022/04/09 01:39:45;;;;;;;1.77;0.60;;;;;;;4.05;60.74;98420.38;4897831;29;20041;-80
2022/04/09 01:42:11;;;;;;;1.80;0.60;;;;;;;3.96;63.88;98413.69;4902855;29;20036;-81
2022/04/09 01:44:37;;;;;;;1.35;0.45;;;;;;;4.02;60.34;98446.63;4900292;29;20024;-81
2022/04/09 01:47:04;;;;;;;1.33;0.30;;;;;;;4.09;61.27;98436.75;4885094;29;20041;-81
2022/04/09 01:49:29;;;;;;;1.40;0.40;;;;;;;3.98;60.79;98428.41;4902121;29;20028;-81
2022/04/09 01:51:54;;;;;;;1.38;0.38;;;;;;;3.94;59.50;98418.41;4902383;29;20040;-80
2022/04/09 01:54:20;;;;;;;2.53;0.55;;;;;;;3.87;58.99;98421.09;4903706;29;20148;-81
2022/04/09 01:56:45;;;;;;;1.23;0.60;;;;;;;3.91;59.38;98426.84;4900864;29;20036;-81
2022/04/09 01:59:11;;;;;;;2.58;0.40;;;;;;;3.97;59.25;98441.91;4903687;29;20463;-80
2022/04/09 02:01:36;;;;;;;2.00;0.60;;;;;;;4.02;62.45;98452.75;4906949;29;20020;-81
2022/04/09 02:04:02;;;;;;;3.35;0.70;;;;;;;4.00;60.99;98434.31;4912453;29;20065;-82
2022/04/09 02:06:28;;;;;;;5.68;0.90;;;;;;;3.94;67.16;98431.69;4908084;29;20033;-81
2022/04/09 02:08:54;;;;;;;1.33;0.38;;;;;;;3.84;64.93;98428.69;4900679;29;20037;-81
2022/04/09 02:11:19;;;;;;;1.35;0.35;;;;;;;3.78;59.85;98418.94;4901681;29;20505;-80
2022/04/09 02:13:45;;;;;;;1.55;0.50;;;;;;;3.90;58.95;98447.28;4899321;29;20553;-80
2022/04/09 02:16:10;;;;;;;2.70;0.45;;;;;;;3.75;56.11;98420.16;4902119;29;20033;-81
2022/04/09 02:18:36;;;;;;;3.55;0.73;;;;;;;3.83;58.89;98440.38;4900710;29;20059;-80
2022/04/09 02:21:01;;;;;;;2.70;0.47;;;;;;;3.81;59.26;98437.94;4900075;29;20185;-80
2022/04/09 02:23:26;;;;;;;1.63;0.50;;;;;;;3.77;59.09;98436.72;4902248;29;20354;-80
2022/04/09 02:25:52;;;;;;;3.55;0.70;;;;;;;3.90;60.00;98447.28;4907518;29;20035;-81
2022/04/09 02:28:17;;;;;;;3.38;0.70;;;;;;;3.84;60.93;98448.16;4908895;29;20107;-82
2022/04/09 02:30:43;;;;;;;5.13;0.75;;;;;;;3.86;58.87;98451.41;4899981;29;20081;-81
2022/04/09 02:33:08;;;;;;;3.30;0.65;;;;;;;3.85;61.77;98449.78;4902519;29;20028;-81
2022/04/09 02:35:34;;;;;;;1.88;0.40;;;;;;;3.75;64.48;98431.63;4901525;29;20040;-81
2022/04/09 02:37:59;;;;;;;1.52;0.35;;;;;;;3.82;64.06;98452.06;4902598;29;20032;-81
2022/04/09 02:40:24;;;;;;;2.00;0.55;;;;;;;3.80;61.46;98456.75;4884449;29;20116;-81
2022/04/09 02:42:51;;;;;;;2.60;0.35;;;;;;;3.75;63.00;98444.91;4903123;29;20037;-81
2022/04/09 02:45:16;;;;;;;2.35;0.40;;;;;;;3.80;62.58;98446.13;4900081;29;20028;-81
2022/04/09 02:47:41;;;;;;;1.45;0.50;;;;;;;3.81;60.70;98467.22;4901946;29;20029;-80
2022/04/09 02:50:07;;;;;;;1.80;0.50;;;;;;;3.80;61.48;98454.91;4901387;29;20490;-80
2022/04/09 02:52:34;;;;;;;4.25;0.57;;;;;;;3.73;63.07;98454.94;4899182;29;20139;-81
2022/04/09 02:55:00;;;;;;;1.05;0.30;;;;;;;3.66;63.59;98446.19;4901165;29;20032;-81
2022/04/09 02:57:26;;;;;;;2.50;0.40;;;;;;;3.71;60.50;98453.56;4901369;29;20451;-81
2022/04/09 02:59:51;;;;;;;5.93;0.60;;;;;;;3.75;62.63;98460.88;4899885;29;20043;-81
2022/04/09 03:02:16;;;;;;;2.22;0.73;;;;;;;3.73;65.53;98459.47;4901570;29;20029;-80
2022/04/09 03:04:42;;;;;;;5.93;0.50;;;;;;;3.66;64.27;98448.03;4900874;29;20029;-80
2022/04/09 03:07:07;;;;;;;1.65;0.30;;;;;;;3.63;60.94;98464.41;4900296;29;20108;-81
2022/04/09 03:09:33;;;;;;;2.60;0.47;;;;;;;3.65;62.60;98455.22;4901531;29;20455;-81
2022/04/09 03:11:58;;;;;;;1.00;0.30;;;;;;;3.61;62.02;98464.66;4901091;29;20056;-81
2022/04/09 03:14:23;;;;;;;2.47;0.30;;;;;;;3.44;60.93;98447.50;4902164;29;20049;-81
2022/04/09 03:16:49;;;;;;;2.25;0.70;;;;;;;3.48;62.45;98464.69;4904064;29;20025;-81
2022/04/09 03:19:14;;;;;;;1.83;0.40;;;;;;;3.51;64.76;98465.09;4909744;29;20024;-82
2022/04/09 03:21:39;;;;;;;2.90;0.50;;;;;;;3.50;64.59;98468.75;4902520;29;20041;-81
2022/04/09 03:24:05;;;;;;;1.83;0.40;;;;;;;3.48;63.39;98472.69;4901778;29;20032;-80
2022/04/09 03:26:30;;;;;;;1.85;0.50;;;;;;;3.52;65.60;98471.22;4886796;29;20044;-82
2022/04/09 03:28:56;;;;;;;3.38;0.43;;;;;;;3.46;64.23;98461.44;4883791;29;20032;-82
2022/04/09 03:31:21;;;;;;;2.60;0.60;;;;;;;3.38;65.08;98449.19;4896809;29;20032;-80
2022/04/09 03:33:51;;;;;;;3.70;0.60;;;;;;;3.49;65.21;98468.97;4901867;29;20028;-81
2022/04/09 03:36:16;;;;;;;3.30;0.52;;;;;;;3.47;65.18;98476.34;4903882;29;20040;-81
2022/04/09 03:38:42;;;;;;;2.95;0.70;;;;;;;3.31;67.11;98453.69;4917319;29;20102;-81
2022/04/09 03:41:08;;;;;;;1.20;0.45;;;;;;;3.46;67.80;98485.34;4900868;29;20051;-82
2022/04/09 03:43:33;;;;;;;2.65;0.57;;;;;;;3.26;67.73;98464.97;4887657;29;20036;-81
2022/04/09 03:45:58;;;;;;;2.92;0.57;;;;;;;3.35;68.97;98475.38;4901872;29;20427;-82
2022/04/09 03:48:24;;;;;;;1.95;0.55;;;;;;;3.40;66.58;98496.81;4899314;29;20071;-81
2022/04/09 03:50:49;;;;;;;1.88;0.38;;;;;;;3.36;67.00;98492.94;4901162;29;20055;-81
2022/04/09 03:53:20;;;;;;;2.15;0.40;;;;;;;3.40;65.21;98486.19;4899649;29;20036;-81
2022/04/09 03:55:49;;;;;;;3.30;0.60;;;;;;;3.48;67.26;98491.28;4899311;29;20107;-82
2022/04/09 03:58:19;;;;;;;5.15;0.60;;;;;;;3.43;69.53;98496.41;4900081;29;20036;-81
2022/04/09 04:00:45;;;;;;;4.50;0.63;;;;;;;3.46;67.58;98498.66;4897949;29;20024;-81
2022/04/09 04:03:11;;;;;;;2.92;0.60;;;;;;;3.46;64.52;98488.00;4900789;29;20099;-81
2022/04/09 04:05:37;;;;;;;2.78;0.50;;;;;;;3.42;65.03;98466.34;4895845;29;20459;-81
2022/04/09 04:08:07;;;;;;;1.73;0.40;;;;;;;3.54;65.87;98501.06;4899518;29;20028;-81
2022/04/09 04:10:35;;;;;;;2.45;0.38;;;;;;;3.44;66.00;98484.72;4899002;29;20056;-81
2022/04/09 04:13:01;;;;;;;2.67;0.60;;;;;;;3.56;66.30;98496.34;4898576;29;20509;-80
2022/04/09 04:15:26;;;;;;;3.22;0.68;;;;;;;3.54;64.07;98514.34;4901311;29;20032;-80
2022/04/09 04:17:52;;;;;;;2.85;0.30;;;;;;;3.59;63.16;98511.88;4900903;29;20033;-80
2022/04/09 04:20:17;;;;;;;3.00;0.52;;;;;;;3.55;63.51;98508.03;4900343;29;20447;-81
2022/04/09 04:22:43;;;;;;;2.67;0.52;;;;;;;3.53;62.52;98500.25;4882436;29;20052;-81
2022/04/09 04:25:09;;;;;;;2.42;0.57;;;;;;;3.57;66.98;98513.94;4899918;29;20044;-81
2022/04/09 04:27:40;;;;;;;2.33;0.28;;;;;;;3.45;64.13;98487.19;4898031;29;20040;-80
2022/04/09 04:30:06;;;;;;;4.05;0.82;;;;;;;3.63;65.31;98501.66;4903350;29;20055;-80
2022/04/09 04:32:32;;;;;;;5.13;0.75;;;;;;;3.85;66.48;98504.84;4886149;29;20033;-81
2022/04/09 04:34:57;;;;;;;2.17;0.57;;;;;;;4.03;64.94;98518.22;4896960;29;20096;-81
2022/04/09 04:37:22;;;;;;;3.17;0.68;;;;;;;3.86;64.46;98519.75;4898948;29;20033;-81
2022/04/09 04:39:48;;;;;;;3.78;0.63;;;;;;;3.82;64.26;98518.56;4914837;29;20064;-80
2022/04/09 04:42:13;;;;;;;4.90;0.80;;;;;;;3.80;66.70;98521.41;4899004;29;20029;-81
2022/04/09 04:44:39;;;;;;;3.42;0.65;;;;;;;3.96;67.50;98533.41;4898580;29;20403;-81
2022/04/09 04:47:04;;;;;;;3.20;0.90;;;;;;;3.86;66.44;98535.72;4903411;29;20044;-81
2022/04/09 04:49:30;;;;;;;3.35;0.63;;;;;;;4.16;66.02;98536.78;4904492;29;20510;-81
2022/04/09 04:51:55;;;;;;;3.75;0.70;;;;;;;4.56;65.59;98546.38;4899022;29;20135;-80
2022/04/09 04:54:20;;;;;;;2.25;0.60;;;;;;;4.27;63.26;98548.59;4898585;29;20086;-81
2022/04/09 04:56:46;;;;;;;3.65;0.75;;;;;;;4.02;67.30;98545.06;4898755;29;20084;-81
2022/04/09 04:59:11;;;;;;;5.20;0.85;;;;;;;4.16;66.95;98543.97;4896916;29;20036;-81
2022/04/09 05:01:40;;;;;;;4.80;0.80;;;;;;;4.17;67.81;98533.13;4897960;29;20029;-81
2022/04/09 05:04:06;;;;;;;3.33;0.60;;;;;;;4.41;69.14;98536.06;4883007;29;20112;-81
2022/04/09 05:06:31;;;;;;;3.08;0.70;;;;;;;4.64;65.14;98549.63;4898549;29;20340;-80
2022/04/09 05:08:57;;;;;;;5.03;0.70;;;;;;;4.29;63.57;98519.13;4898905;29;20043;-81
2022/04/09 05:11:22;;;;;;;4.53;1.08;;;;;;;4.63;61.68;98557.81;4898373;29;20065;-81
2022/04/09 05:13:48;;;;;;;3.17;0.70;;;;;;;5.05;60.59;98544.78;4897796;29;20541;-81
2022/04/09 05:16:14;;;;;;;2.53;0.80;;;;;;;5.00;58.39;98557.94;4901609;29;20035;-81
2022/04/09 05:18:39;;;;;;;2.05;0.50;;;;;;;5.38;60.73;98557.78;4901852;29;20119;-81
2022/04/09 05:21:04;;;;;;;7.47;0.90;;;;;;;5.78;59.11;98558.16;4886109;29;20119;-81
2022/04/09 05:23:30;;;;;;;5.82;0.88;;;;;;;5.62;57.99;98554.22;4905357;29;20100;-81
2022/04/09 05:25:55;;;;;;;4.45;1.10;;;;;;;5.60;60.88;98564.34;4903034;29;20470;-81
2022/04/09 05:28:21;;;;;;;4.28;0.60;;;;;;;5.65;59.91;98548.47;4904046;29;20069;-81
2022/04/09 05:30:46;;;;;;;3.33;0.73;;;;;;;5.93;61.14;98563.19;4903531;29;20076;-81
2022/04/09 05:33:12;;;;;;;5.80;0.70;;;;;;;6.13;58.73;98573.59;4904134;29;20040;-80
2022/04/09 05:35:37;;;;;;;3.78;0.60;;;;;;;6.33;55.83;98551.97;4902881;29;20391;-80
2022/04/09 05:38:03;;;;;;;5.93;0.60;;;;;;;5.42;59.31;98577.63;4905059;29;20403;-81
2022/04/09 05:40:29;;;;;;;4.80;1.33;;;;;;;4.73;61.54;98579.44;4905073;29;20340;-81
2022/04/09 05:42:54;;;;;;;1.67;0.40;;;;;;;4.64;61.07;98576.25;4911193;29;20032;-81
2022/04/09 05:45:20;;;;;;;4.53;0.60;;;;;;;4.55;63.76;98574.88;4900291;29;20041;-80
2022/04/09 05:47:46;;;;;;;6.38;0.77;;;;;;;4.45;65.27;98585.19;4901087;29;20112;-80
2022/04/09 05:50:13;;;;;;;9.70;1.20;;;;;;;4.57;65.61;98591.47;4901990;29;20095;-80
2022/04/09 05:52:39;;;;;;;4.47;0.65;;;;;;;4.38;67.14;98579.06;4906554;29;20419;-80
2022/04/09 05:55:06;;;;;;;1.75;0.55;;;;;;;4.39;64.75;98588.69;4902818;29;20036;-80
2022/04/09 05:57:32;;;;;;;5.18;1.02;;;;;;;4.46;65.28;98578.81;4902457;29;20025;-80
2022/04/09 05:59:58;;;;;;;4.07;0.80;;;;;;;4.37;66.45;98586.25;4883683;29;20037;-80
2022/04/09 06:02:23;;;;;;;5.57;0.90;;;;;;;4.27;67.54;98577.88;4900486;29;20347;-80
2022/04/09 06:04:48;;;;;;;5.43;1.00;;;;;;;4.49;67.95;98599.69;4901176;29;20470;-79
2022/04/09 06:07:14;;;;;;;4.15;0.65;;;;;;;4.41;64.27;98611.41;4900358;29;20429;-80
2022/04/09 06:09:41;;;;;;;4.43;0.90;;;;;;;4.44;66.03;98618.97;4900773;29;20020;-81
2022/04/09 06:12:08;;;;;;;4.50;0.80;;;;;;;4.50;65.76;98609.31;4901349;29;20036;-80
2022/04/09 06:14:34;;;;;;;4.95;0.93;;;;;;;4.50;65.61;98616.47;4898182;29;20469;-80
2022/04/09 06:16:59;;;;;;;5.45;0.88;;;;;;;4.53;65.00;98608.06;4899896;29;20179;-81
2022/04/09 06:19:24;;;;;;;3.92;0.60;;;;;;;4.57;66.48;98617.25;4900181;29;20053;-81
2022/04/09 06:21:50;;;;;;;6.72;0.80;;;;;;;4.44;64.53;98612.84;4899484;29;20095;-81
2022/04/09 06:24:15;;;;;;;5.47;0.77;;;;;;;4.56;65.17;98615.63;4899944;29;20486;-81
2022/04/09 06:26:40;;;;;;;4.57;1.00;;;;;;;4.37;65.60;98590.72;4898593;29;20145;-80
2022/04/09 06:29:06;;;;;;;4.88;0.90;;;;;;;4.67;67.17;98628.28;4899593;29;20044;-80
2022/04/09 06:31:31;;;;;;;3.95;0.90;;;;;;;4.40;65.38;98607.13;4904177;29;20028;-80
2022/04/09 06:33:57;;;;;;;7.38;0.60;;;;;;;3.12;66.25;98373.03;4902742;29;20040;-81
2022/04/09 06:36:22;;;;;;;3.65;0.90;;;;;;;4.68;67.55;98620.06;4904072;29;20035;-81
2022/04/09 06:38:47;;;;;;;3.95;0.73;;;;;;;4.69;66.80;98637.66;4902777;29;20052;-81
2022/04/09 06:41:14;;;;;;;7.18;1.55;;;;;;;4.59;71.18;98631.19;4913626;29;20088;-81
2022/04/09 06:43:39;;;;;;;5.28;1.20;;;;;;;4.46;67.67;98619.56;4908460;29;20032;-81
2022/04/09 06:46:05;;;;;;;6.18;1.23;;;;;;;4.62;67.72;98622.78;4932331;29;20091;-81
2022/04/09 06:48:30;;;;;;;5.40;1.00;;;;;;;4.55;67.05;98608.69;4918118;29;20032;-82
2022/04/09 07:11:37;;;;;;;5.07;0.88;;;;;;;3.24;64.00;98389.94;5786125;23;20047;-83
2022/04/09 07:14:02;;;;;;;3.63;0.60;;;;;;;4.20;65.18;98537.19;4940507;28;20071;-81
2022/04/09 07:26:48;;;;;;;5.57;0.82;;;;;;;5.29;62.42;98666.56;5952735;23;20715;-82
2022/04/09 07:29:14;;;;;;;3.67;1.00;;;;;;;4.96;61.89;98637.50;5460679;23;20094;-81
2022/04/09 07:31:40;;;;;;;5.65;0.80;;;;;;;4.85;62.93;98609.69;4976121;28;20043;-82
2022/04/09 07:34:05;;;;;;;4.55;1.13;;;;;;;3.60;61.93;98420.44;4972121;28;20043;-82
2022/04/09 07:36:31;;;;;;;7.78;1.10;;;;;;;4.86;62.85;98623.84;4958921;29;20075;-82
2022/04/09 07:38:56;;;;;;;5.88;1.35;;;;;;;5.00;62.77;98648.53;4957943;29;20004;-81
2022/04/09 07:41:21;;;;;;;4.13;1.00;;;;;;;5.32;61.99;98678.66;4926910;28;20031;-83
2022/04/09 07:43:47;;;;;;;5.38;1.55;;;;;;;5.07;62.64;98639.50;5064491;23;20041;-82
2022/04/09 07:46:13;;;;;;;4.22;1.05;;;;;;;3.51;66.06;98395.16;4980447;28;20034;-83
2022/04/09 07:48:38;;;;;;;3.42;0.80;;;;;;;5.09;63.84;98637.41;4979542;28;20066;-83
2022/04/09 07:51:04;;;;;;;3.65;0.80;;;;;;;5.34;61.82;98677.41;4978332;28;20026;-82
2022/04/09 07:53:29;;;;;;;3.50;1.00;;;;;;;5.47;62.08;98703.16;5113068;23;20071;-82
2022/04/09 07:55:54;;;;;;;5.20;1.25;;;;;;;5.59;63.67;98695.25;4953032;29;20056;-82
2022/04/09 07:58:20;;;;;;;8.40;1.20;;;;;;;5.56;63.81;98685.03;4934643;29;20382;-82
2022/04/09 08:00:45;;;;;;;5.80;1.13;;;;;;;5.64;64.05;98701.59;4933135;29;20036;-83
2022/04/09 08:03:12;;;;;;;4.72;1.02;;;;;;;5.58;63.27;98693.63;4927297;29;20032;-82
2022/04/09 08:05:37;;;;;;;4.32;0.88;;;;;;;5.59;61.97;98706.75;4925324;29;20046;-83
2022/04/09 08:08:04;;;;;;;4.32;0.98;;;;;;;5.47;61.66;98711.19;4927799;29;20118;-79
2022/04/09 08:10:30;;;;;;;6.65;1.02;;;;;;;5.58;65.11;98715.78;4924629;29;20042;-81
2022/04/09 08:12:56;;;;;;;5.25;0.90;;;;;;;5.44;62.67;98708.13;4920030;29;20072;-82
2022/04/09 08:15:23;;;;;;;3.33;0.93;;;;;;;5.59;62.82;98721.94;4909265;29;20032;-82
2022/04/09 08:17:54;;;;;;;4.80;0.95;;;;;;;5.58;62.57;98730.97;4929811;29;20366;-81
2022/04/09 08:20:20;;;;;;;7.70;1.10;;;;;;;5.63;62.55;98731.16;4988739;23;20087;-81
2022/04/09 08:22:47;;;;;;;5.97;1.23;;;;;;;5.57;65.29;98740.84;4947162;28;20040;-82
2022/04/09 08:25:12;;;;;;;2.92;0.65;;;;;;;5.60;63.57;98744.94;4940468;29;20055;-82
2022/04/09 08:27:38;;;;;;;6.35;1.02;;;;;;;5.49;62.07;98721.63;4943837;29;20040;-81
2022/04/09 08:30:07;;;;;;;5.05;0.82;;;;;;;5.72;63.33;98742.38;4928841;29;20034;-83
2022/04/09 08:32:33;;;;;;;5.22;0.90;;;;;;;5.76;62.78;98749.72;4944231;29;20046;-82
2022/04/09 08:35:00;;;;;;;5.60;0.90;;;;;;;5.75;62.60;98739.25;4948567;29;20095;-81
2022/04/09 08:37:25;;;;;;;4.70;0.75;;;;;;;5.62;63.40;98738.31;4943516;29;20055;-82
2022/04/09 08:39:51;;;;;;;8.63;0.90;;;;;;;5.72;62.67;98743.16;4945513;29;20020;-81
2022/04/09 08:42:16;;;;;;;4.75;0.73;;;;;;;5.78;62.72;98746.84;4949366;28;20039;-83
2022/04/09 08:44:42;;;;;;;2.70;0.70;;;;;;;5.85;61.89;98752.94;4924405;29;20036;-81
2022/04/09 08:47:08;;;;;;;7.35;0.70;;;;;;;5.88;62.49;98766.66;4966871;29;20082;-82
2022/04/09 08:49:40;;;;;;;6.07;0.75;;;;;;;5.89;61.45;98772.78;4955536;29;20039;-81
2022/04/09 08:52:08;;;;;;;5.65;1.10;;;;;;;5.70;61.30;98749.78;4974466;28;20051;-82
2022/04/09 08:54:37;;;;;;;4.03;0.68;;;;;;;5.74;63.02;98767.81;4961940;28;20027;-83
2022/04/09 08:57:04;;;;;;;6.55;1.02;;;;;;;5.82;65.29;98772.84;4944788;29;20028;-82
2022/04/09 08:59:30;;;;;;;6.28;0.95;;;;;;;5.91;63.45;98773.41;4962441;28;20028;-81
2022/04/09 09:01:55;;;;;;;8.95;1.15;;;;;;;5.92;64.28;98795.56;4948098;29;20106;-81
2022/04/09 09:04:21;;;;;;;6.47;1.02;;;;;;;6.06;64.12;98787.28;4933116;29;20036;-82
2022/04/09 09:06:46;;;;;;;5.35;0.90;;;;;;;5.95;63.91;98798.66;4931652;29;20028;-81
2022/04/09 09:09:32;;;;;;;3.22;0.80;;;;;;;5.98;64.24;98776.84;4937668;29;20115;-81
2022/04/09 09:12:02;;;;;;;5.00;0.93;;;;;;;6.15;63.93;98805.69;4934911;29;20446;-81
2022/04/09 09:14:28;;;;;;;6.75;1.08;;;;;;;6.21;63.20;98810.16;4931423;29;20047;-81
2022/04/09 09:16:55;;;;;;;5.18;0.98;;;;;;;6.29;64.27;98813.38;4934163;29;20060;-80
2022/04/09 09:19:21;;;;;;;2.22;0.75;;;;;;;6.17;62.86;98808.97;4927433;29;20367;-80
2022/04/09 09:21:56;;;;;;;7.22;1.20;;;;;;;6.24;62.37;98817.72;4930102;29;20395;-80
2022/04/09 09:24:21;;;;;;;5.70;1.17;;;;;;;6.18;60.44;98799.91;4922572;29;20513;-81
2022/04/09 09:26:57;;;;;;;9.65;1.10;;;;;;;6.42;61.92;98820.41;4940300;29;20035;-81
2022/04/09 09:29:26;;;;;;;3.92;1.10;;;;;;;6.44;61.59;98823.69;4938785;29;20020;-81
2022/04/09 09:31:52;;;;;;;6.25;1.15;;;;;;;6.41;61.10;98826.78;4940817;29;20351;-80
2022/04/09 09:34:19;;;;;;;5.60;1.02;;;;;;;6.29;61.21;98799.16;4911323;29;20028;-81
2022/04/09 09:36:45;;;;;;;5.38;0.73;;;;;;;6.61;61.45;98829.25;4937684;29;20032;-80
2022/04/09 09:39:13;;;;;;;4.03;0.88;;;;;;;6.75;61.66;98835.28;4938763;29;20362;-79
2022/04/09 09:41:56;;;;;;;6.75;1.05;;;;;;;6.67;61.69;98825.72;4928749;29;20147;-81
2022/04/09 09:44:23;;;;;;;5.00;0.85;;;;;;;6.88;64.25;98832.44;4953905;29;20110;-80
2022/04/09 09:46:50;;;;;;;7.65;1.23;;;;;;;6.89;63.30;98811.88;4933974;29;20075;-80
2022/04/09 09:49:17;;;;;;;9.18;1.52;;;;;;;7.00;62.29;98825.31;4928366;29;20106;-80
2022/04/09 09:51:43;;;;;;;8.98;1.20;;;;;;;7.01;59.86;98836.84;4931790;29;20474;-80
2022/04/09 09:54:11;;;;;;;7.13;1.10;;;;;;;6.90;59.91;98829.56;4922612;29;20075;-80
2022/04/09 09:56:42;;;;;;;7.35;1.50;;;;;;;6.96;61.26;98805.44;4929530;29;20095;-81
2022/04/09 09:59:09;;;;;;;7.07;1.15;;;;;;;6.98;62.44;98838.09;4919752;29;20028;-80
2022/04/09 10:01:39;;;;;;;6.47;0.90;;;;;;;6.84;62.72;98850.00;4923743;29;20047;-80
2022/04/09 10:04:06;;;;;;;7.88;1.15;;;;;;;6.78;61.53;98850.88;4933234;29;20467;-80
2022/04/09 10:06:33;;;;;;;7.82;1.30;;;;;;;6.82;61.97;98852.06;4909247;29;20024;-79
2022/04/09 10:09:00;;;;;;;7.07;1.30;;;;;;;6.67;61.37;98830.25;4928370;29;20047;-78
2022/04/09 10:11:26;;;;;;;5.75;1.13;;;;;;;6.76;62.40;98836.94;4928374;29;20051;-76
2022/04/09 10:13:55;;;;;;;4.70;0.95;;;;;;;6.85;63.10;98843.59;4932246;29;20043;-78
2022/04/09 10:16:22;;;;;;;8.55;1.23;;;;;;;6.79;62.91;98856.00;4912598;29;20032;-78
2022/04/09 10:18:49;;;;;;;5.00;0.90;;;;;;;6.86;62.04;98839.91;4927294;29;20059;-78
2022/04/09 10:21:15;;;;;;;5.28;1.40;;;;;;;6.84;60.39;98847.31;4926013;29;20056;-78
2022/04/09 10:23:42;;;;;;;6.57;1.17;;;;;;;6.80;59.90;98851.47;4931497;29;20118;-78
2022/04/09 10:26:08;;;;;;;3.53;0.65;;;;;;;6.83;63.03;98851.84;4919839;29;20477;-78
2022/04/09 10:28:36;;;;;;;7.47;1.20;;;;;;;6.93;64.37;98851.34;4936229;29;20035;-78
2022/04/09 10:31:22;;;;;;;7.95;1.35;;;;;;;7.14;64.97;98855.38;4938305;29;20402;-78
2022/04/09 10:33:58;;;;;;;7.40;1.40;;;;;;;6.68;64.03;98784.56;4920646;29;20028;-78
2022/04/09 10:36:42;;;;;;;5.25;1.20;;;;;;;7.22;65.31;98854.28;4933184;29;20032;-78
2022/04/09 10:39:22;;;;;;;7.45;1.30;;;;;;;7.28;63.80;98856.03;4932023;29;20091;-78
2022/04/09 10:41:57;;;;;;;9.35;1.50;;;;;;;7.09;64.48;98851.78;4936119;29;20023;-78
2022/04/09 10:44:44;;;;;;;5.35;1.17;;;;;;;7.14;64.17;98866.09;4922645;29;20076;-78
2022/04/09 10:47:13;;;;;;;7.65;1.58;;;;;;;7.14;65.57;98866.09;4932238;29;20469;-78
2022/04/09 10:49:40;;;;;;;4.38;0.88;;;;;;;7.05;63.86;98870.94;4926914;29;20438;-78
2022/04/09 10:52:15;;;;;;;12.85;1.60;;;;;;;7.13;64.50;98867.13;4935190;29;20035;-79
2022/04/09 10:55:02;;;;;;;5.38;1.02;;;;;;;7.14;65.31;98863.41;4932201;29;20047;-79
2022/04/09 10:57:27;;;;;;;6.35;1.20;;;;;;;7.30;65.71;98876.19;4922921;29;20020;-79
2022/04/09 10:59:58;;;;;;;4.85;0.85;;;;;;;7.28;64.08;98878.28;4929057;29;20348;-79
2022/04/09 11:02:25;;;;;;;6.13;1.02;;;;;;;7.27;63.83;98876.63;4930018;29;20509;-78
2022/04/09 11:04:51;;;;;;;6.60;1.08;;;;;;;7.14;64.20;98851.91;4933042;29;20366;-78
2022/04/09 11:07:23;;;;;;;6.15;1.40;;;;;;;7.41;65.41;98879.94;4936034;29;20031;-80
2022/04/09 11:10:03;;;;;;;9.43;1.35;;;;;;;7.48;65.09;98878.03;4937323;29;20031;-78
2022/04/09 11:12:37;;;;;;;9.60;1.40;;;;;;;7.47;64.86;98878.25;4934686;29;20467;-78
2022/04/09 11:15:05;;;;;;;10.15;1.88;;;;;;;7.62;65.62;98869.81;4936617;29;20357;-78
2022/04/09 11:17:33;;;;;;;6.70;0.80;;;;;;;7.75;64.57;98869.63;4935059;29;20107;-78
2022/04/09 11:20:10;;;;;;;11.88;2.05;;;;;;;7.91;63.49;98884.22;4935870;29;20055;-78
2022/04/09 11:22:44;;;;;;;5.78;0.73;;;;;;;7.89;62.58;98886.31;4932935;29;20023;-77
2022/04/09 11:25:16;;;;;;;8.57;1.40;;;;;;;7.71;63.80;98876.47;4936583;29;20398;-78
2022/04/09 11:27:42;;;;;;;10.57;1.88;;;;;;;7.76;64.38;98892.66;4927583;29;20038;-77
2022/04/09 11:30:09;;;;;;;6.93;1.42;;;;;;;7.59;63.94;98880.97;4929895;29;20036;-77
2022/04/09 11:32:35;;;;;;;11.82;1.40;;;;;;;7.87;65.95;98899.09;4936897;29;20035;-77
2022/04/09 11:35:08;;;;;;;11.75;1.70;;;;;;;7.46;64.85;98860.56;4931712;29;20369;-77
2022/04/09 11:37:38;;;;;;;11.38;2.00;;;;;;;7.67;65.45;98889.50;4919864;29;20141;-77
2022/04/09 11:40:06;;;;;;;9.88;1.63;;;;;;;7.86;66.03;98906.31;4917440;29;20028;-78
2022/04/09 11:42:48;;;;;;;6.55;1.25;;;;;;;7.86;66.51;98910.88;4929077;29;20063;-78
2022/04/09 11:45:27;;;;;;;8.60;1.83;;;;;;;7.94;66.08;98900.63;4936255;29;20031;-77
2022/04/09 11:48:00;;;;;;;10.98;2.00;;;;;;;7.93;64.71;98916.94;4918835;29;20430;-77
2022/04/09 11:50:31;;;;;;;9.45;1.63;;;;;;;7.94;66.16;98902.50;4917647;29;20447;-79
2022/04/09 11:53:07;;;;;;;7.15;1.38;;;;;;;7.92;64.35;98908.09;4935233;29;20110;-78
2022/04/09 11:55:33;;;;;;;11.20;1.67;;;;;;;7.95;65.40;98917.53;4936372;29;20118;-79
2022/04/09 11:57:58;;;;;;;13.68;2.13;;;;;;;8.06;66.01;98914.06;4936783;29;20430;-78
2022/04/09 12:00:27;;;;;;;11.45;1.67;;;;;;;8.07;66.46;98910.34;4918340;29;20036;-79
2022/04/09 12:02:53;;;;;;;7.07;1.20;;;;;;;8.00;67.17;98931.84;4937980;29;20050;-79
2022/04/09 12:05:19;;;;;;;5.68;1.25;;;;;;;8.03;67.77;98935.94;4937973;29;20485;-79
2022/04/09 12:07:47;;;;;;;10.23;1.65;;;;;;;8.04;67.79;98931.41;4935611;29;20039;-79
2022/04/09 12:10:26;;;;;;;9.00;1.67;;;;;;;8.19;67.54;98931.81;4938851;29;20032;-79
2022/04/09 12:12:59;;;;;;;12.20;2.38;;;;;;;8.03;67.98;98930.59;4947383;28;20119;-80
2022/04/09 12:15:33;;;;;;;12.40;2.45;;;;;;;8.09;69.36;98944.94;4939689;29;20035;-81